createdAt,value
2022-09-05T00:00:12.705Z,23.92
2022-09-05T00:03:04.192Z,23.91
2022-09-05T00:06:02.744Z,23.87
2022-09-05T00:08:59.221Z,23.86
2022-09-05T00:11:41.447Z,23.85
2022-09-05T00:14:57.256Z,23.83
2022-09-05T00:17:47.225Z,23.84
2022-09-05T00:24:28.562Z,23.83
2022-09-05T00:24:29.349Z,23.83
2022-09-05T00:26:31.252Z,23.81
2022-09-05T00:29:06.110Z,23.80
2022-09-05T00:31:54.528Z,23.78
2022-09-05T00:34:48.452Z,23.77
2022-09-05T00:37:35.483Z,23.75
2022-09-05T00:40:29.072Z,23.74
2022-09-05T00:43:03.990Z,23.72
2022-09-05T00:45:37.214Z,23.70
2022-09-05T00:48:17.336Z,23.69
2022-09-05T00:51:14.784Z,23.66
2022-09-05T00:53:48.519Z,23.62
2022-09-05T00:56:42.029Z,23.60
2022-09-05T00:59:58.811Z,23.58
2022-09-05T01:02:32.104Z,23.56
2022-09-05T01:05:37.654Z,23.52
2022-09-05T01:08:25.902Z,23.48
2022-09-05T01:11:25.192Z,23.45
2022-09-05T01:14:12.760Z,23.42
2022-09-05T01:17:17.135Z,23.39
2022-09-05T01:19:55.633Z,23.34
2022-09-05T01:22:40.527Z,23.31
2022-09-05T01:25:25.706Z,23.31
2022-09-05T01:29:13.038Z,23.26
2022-09-05T01:31:04.839Z,23.22
2022-09-05T01:33:44.127Z,23.19
2022-09-05T01:36:38.203Z,23.14
2022-09-05T01:40:10.954Z,23.10
2022-09-05T01:42:22.950Z,23.07
2022-09-05T01:44:57.109Z,23.03
2022-09-05T01:47:42.141Z,22.99
2022-09-05T01:50:14.994Z,22.96
2022-09-05T01:53:06.333Z,22.92
2022-09-05T01:56:04.846Z,22.89
2022-09-05T01:58:52.356Z,22.85
2022-09-05T02:01:25.480Z,22.80
2022-09-05T02:04:08.062Z,22.76
2022-09-05T02:06:44.927Z,22.73
2022-09-05T02:09:29.881Z,22.71
2022-09-05T02:12:07.017Z,22.68
2022-09-05T02:14:43.434Z,22.66
2022-09-05T02:17:50.484Z,22.64
2022-09-05T02:20:31.306Z,22.62
2022-09-05T02:23:00.855Z,22.60
2022-09-05T02:26:03.592Z,22.57
2022-09-05T02:28:48.362Z,22.55
2022-09-05T02:31:32.675Z,22.53
2022-09-05T02:34:15.386Z,22.50
2022-09-05T02:36:50.487Z,22.49
2022-09-05T02:45:04.247Z,22.47
2022-09-05T02:45:20.006Z,22.46
2022-09-05T02:45:41.260Z,22.47
2022-09-05T02:48:32.105Z,22.47
2022-09-05T02:55:54.759Z,22.48
2022-09-05T02:57:34.735Z,22.49
2022-09-05T02:58:04.561Z,22.48
2022-09-05T03:00:23.326Z,22.48
2022-09-05T03:03:14.379Z,22.48
2022-09-05T03:06:00.653Z,22.47
2022-09-05T03:08:50.032Z,22.46
2022-09-05T03:11:48.730Z,22.45
2022-09-05T03:14:46.761Z,22.43
2022-09-05T03:17:47.287Z,22.40
2022-09-05T03:20:51.370Z,22.36
2022-09-05T03:23:33.435Z,22.30
2022-09-05T03:26:27.374Z,22.25
2022-09-05T03:28:59.729Z,22.19
2022-09-05T03:31:57.299Z,22.14
2022-09-05T03:34:53.688Z,22.07
2022-09-05T03:37:50.718Z,22.03
2022-09-05T03:40:36.626Z,21.97
2022-09-05T03:43:33.593Z,21.94
2022-09-05T03:46:06.192Z,21.90
2022-09-05T03:48:47.409Z,21.86
2022-09-05T03:57:06.999Z,21.83
2022-09-05T03:57:28.164Z,21.80
2022-09-05T03:57:46.892Z,21.76
2022-09-05T04:00:22.492Z,21.73
2022-09-05T04:06:36.135Z,21.70
2022-09-05T04:08:16.081Z,21.66
2022-09-05T04:09:06.276Z,21.64
2022-09-05T04:11:39.943Z,21.60
2022-09-05T04:14:25.652Z,21.56
2022-09-05T04:17:00.864Z,21.53
2022-09-05T04:19:37.233Z,21.48
2022-09-05T04:22:22.602Z,21.45
2022-09-05T04:24:58.691Z,21.43
2022-09-05T04:27:48.271Z,21.39
2022-09-05T04:30:38.787Z,21.38
2022-09-05T04:33:16.039Z,21.33
2022-09-05T04:35:51.662Z,21.31
2022-09-05T04:38:33.748Z,21.29
2022-09-05T04:41:04.522Z,21.26
2022-09-05T04:43:56.186Z,21.26
2022-09-05T04:46:31.996Z,21.24
2022-09-05T04:49:24.497Z,21.23
2022-09-05T04:52:09.411Z,21.21
2022-09-05T04:54:57.399Z,21.19
2022-09-05T04:57:38.602Z,21.18
2022-09-05T05:02:35.161Z,21.16
2022-09-05T05:06:15.942Z,21.16
2022-09-05T05:09:00.263Z,21.15
2022-09-05T05:18:00.299Z,21.15
2022-09-05T05:18:11.988Z,21.16
2022-09-05T05:18:53.332Z,21.15
2022-09-05T05:21:05.768Z,21.17
2022-09-05T05:23:39.414Z,21.16
2022-09-05T05:26:11.384Z,21.17
2022-09-05T05:29:07.520Z,21.19
2022-09-05T05:31:38.808Z,21.20
2022-09-05T05:34:24.002Z,21.23
2022-09-05T05:37:26.738Z,21.26
2022-09-05T05:40:09.834Z,21.31
2022-09-05T05:42:40.088Z,21.34
2022-09-05T05:45:21.218Z,21.37
2022-09-05T05:48:02.446Z,21.42
2022-09-05T05:50:57.409Z,21.46
2022-09-05T05:53:47.909Z,21.52
2022-09-05T05:56:38.006Z,21.58
2022-09-05T05:59:11.111Z,21.62
2022-09-05T06:01:58.832Z,21.70
2022-09-05T06:04:45.177Z,21.77
2022-09-05T06:09:48.000Z,21.85
2022-09-05T06:14:56.829Z,22.06
2022-09-05T06:17:10.402Z,22.17
2022-09-05T06:21:54.555Z,22.28
2022-09-05T06:24:03.871Z,22.44
2022-09-05T06:26:36.399Z,22.55
2022-09-05T06:29:15.564Z,22.67
2022-09-05T06:31:55.917Z,22.80
2022-09-05T06:34:47.114Z,22.91
2022-09-05T06:37:36.454Z,23.05
2022-09-05T06:40:18.650Z,23.16
2022-09-05T06:43:24.507Z,23.30
2022-09-05T06:47:23.050Z,23.43
2022-09-05T06:49:51.061Z,23.59
2022-09-05T06:52:43.728Z,23.73
2022-09-05T06:55:28.582Z,23.90
2022-09-05T06:58:26.034Z,24.04
2022-09-05T07:00:56.150Z,24.17
2022-09-05T07:03:33.294Z,24.31
2022-09-05T07:06:19.518Z,24.43
2022-09-05T07:09:08.530Z,24.60
2022-09-05T07:11:55.709Z,24.74
2022-09-05T07:14:28.094Z,24.85
2022-09-05T07:17:13.719Z,24.96
2022-09-05T07:22:55.359Z,25.12
2022-09-05T07:25:28.279Z,25.17
2022-09-05T07:28:28.601Z,25.21
2022-09-05T07:31:27.305Z,25.26
2022-09-05T07:34:22.784Z,25.30
2022-09-05T07:37:13.936Z,25.32
2022-09-05T07:40:12.974Z,25.33
2022-09-05T07:43:08.977Z,25.37
2022-09-05T07:45:55.296Z,25.37
2022-09-05T07:48:34.640Z,25.41
2022-09-05T07:55:16.746Z,25.48
2022-09-05T07:56:55.974Z,25.57
2022-09-05T07:59:41.868Z,25.87
2022-09-05T08:02:11.393Z,26.02
2022-09-05T08:04:40.860Z,26.17
2022-09-05T08:07:47.298Z,26.33
2022-09-05T08:10:10.497Z,26.50
2022-09-05T08:13:24.352Z,26.63
2022-09-05T08:16:10.040Z,26.76
2022-09-05T08:18:46.049Z,26.85
2022-09-05T08:21:22.335Z,26.95
2022-09-05T08:24:15.076Z,27.02
2022-09-05T08:26:53.011Z,27.12
2022-09-05T08:29:35.004Z,27.20
2022-09-05T08:32:34.695Z,27.30
2022-09-05T08:35:25.317Z,27.40
2022-09-05T08:37:54.432Z,27.46
2022-09-05T08:40:35.701Z,27.56
2022-09-05T08:46:36.772Z,27.65
2022-09-05T08:46:44.586Z,27.76
2022-09-05T08:49:45.586Z,27.89
2022-09-05T08:52:35.169Z,28.00
2022-09-05T08:55:10.190Z,28.10
2022-09-05T08:57:46.173Z,28.18
2022-09-05T09:00:24.496Z,28.27
2022-09-05T09:03:22.522Z,28.36
2022-09-05T09:06:13.305Z,28.44
2022-09-05T09:09:05.844Z,28.58
2022-09-05T09:11:48.758Z,28.67
2022-09-05T09:14:37.309Z,28.78
2022-09-05T09:17:27.261Z,28.89
2022-09-05T09:20:16.765Z,28.99
2022-09-05T09:23:31.884Z,29.08
2022-09-05T09:25:59.469Z,29.17
2022-09-05T09:28:50.187Z,29.23
2022-09-05T09:31:52.408Z,29.32
2022-09-05T09:34:25.468Z,29.42
2022-09-05T09:37:00.945Z,29.50
2022-09-05T09:39:52.201Z,29.58
2022-09-05T09:42:38.979Z,29.68
2022-09-05T09:45:27.775Z,29.75
2022-09-05T09:48:10.494Z,29.88
2022-09-05T09:51:09.459Z,29.96
2022-09-05T09:54:03.786Z,30.06
2022-09-05T09:56:59.209Z,30.15
2022-09-05T10:00:21.357Z,30.23
2022-09-05T10:07:22.881Z,30.34
2022-09-05T10:10:46.917Z,30.44
2022-09-05T10:10:51.763Z,30.53
2022-09-05T10:12:40.490Z,30.64
2022-09-05T10:15:31.659Z,30.72
2022-09-05T10:18:33.349Z,30.80
2022-09-05T10:21:34.703Z,30.88
2022-09-05T10:24:28.990Z,30.95
2022-09-05T10:27:25.506Z,31.01
2022-09-05T10:30:11.917Z,31.08
2022-09-05T10:35:17.913Z,31.16
2022-09-05T10:36:02.058Z,31.24
2022-09-05T10:38:45.379Z,31.31
2022-09-05T10:41:22.602Z,31.37
2022-09-05T10:43:58.197Z,31.45
2022-09-05T10:46:52.177Z,31.53
2022-09-05T10:49:25.418Z,31.63
2022-09-05T10:52:19.086Z,31.69
2022-09-05T10:55:17.745Z,31.80
2022-09-05T10:57:54.406Z,31.90
2022-09-05T11:02:26.377Z,31.97
2022-09-05T11:04:00.472Z,32.05
2022-09-05T11:06:47.010Z,32.11
2022-09-05T11:09:33.502Z,32.18
2022-09-05T11:12:32.827Z,32.28
2022-09-05T11:15:02.624Z,32.34
2022-09-05T11:17:41.967Z,32.44
2022-09-05T11:20:35.113Z,32.52
2022-09-05T11:23:10.165Z,32.60
2022-09-05T11:25:41.072Z,32.68
2022-09-05T11:28:23.011Z,32.80
2022-09-05T11:30:54.717Z,32.91
2022-09-05T11:39:45.854Z,33.04
2022-09-05T11:40:08.820Z,33.20
2022-09-05T11:40:31.536Z,33.36
2022-09-05T11:43:07.428Z,33.53
2022-09-05T11:45:57.988Z,33.66
2022-09-05T11:48:53.483Z,33.81
2022-09-05T11:51:44.674Z,33.94
2022-09-05T11:54:27.192Z,34.04
2022-09-05T11:56:53.625Z,34.12
2022-09-05T12:00:31.091Z,34.20
2022-09-05T12:03:05.470Z,34.27
2022-09-05T12:05:59.324Z,34.31
2022-09-05T12:08:29.032Z,34.33
2022-09-05T12:11:14.195Z,34.36
2022-09-05T12:13:48.100Z,34.40
2022-09-05T12:16:38.133Z,34.47
2022-09-05T12:19:33.998Z,34.47
2022-09-05T12:22:23.794Z,34.50
2022-09-05T12:26:02.882Z,34.48
2022-09-05T12:29:28.142Z,34.44
2022-09-05T12:32:59.508Z,34.36
2022-09-05T12:36:12.191Z,34.28
2022-09-05T12:40:53.770Z,34.21
2022-09-05T12:41:42.574Z,34.13
2022-09-05T12:44:40.226Z,34.05
2022-09-05T12:46:09.580Z,34.01
2022-09-05T12:48:57.857Z,34.00
2022-09-05T12:51:46.705Z,33.98
2022-09-05T12:54:33.129Z,34.00
2022-09-05T12:58:45.813Z,34.02
2022-09-05T13:03:02.646Z,34.06
2022-09-05T13:03:29.066Z,34.13
2022-09-05T13:06:23.008Z,34.20
2022-09-05T13:08:59.426Z,34.24
2022-09-05T13:14:47.446Z,34.29
2022-09-05T13:14:55.594Z,34.35
2022-09-05T13:17:14.175Z,34.37
2022-09-05T13:19:51.175Z,34.41
2022-09-05T13:22:24.364Z,34.43
2022-09-05T13:25:04.309Z,34.46
2022-09-05T13:27:39.314Z,34.47
2022-09-05T13:31:59.643Z,34.51
2022-09-05T13:38:12.339Z,34.56
2022-09-05T13:38:13.583Z,34.58
2022-09-05T13:39:20.125Z,34.57
2022-09-05T13:41:53.061Z,34.52
2022-09-05T13:44:26.935Z,34.48
2022-09-05T13:47:32.930Z,34.45
2022-09-05T13:50:23.233Z,34.45
2022-09-05T13:53:15.582Z,34.45
2022-09-05T13:56:03.281Z,34.50
2022-09-05T13:58:56.591Z,34.54
2022-09-05T14:02:22.629Z,34.59
2022-09-05T14:05:20.762Z,34.65
2022-09-05T14:08:18.817Z,34.69
2022-09-05T14:11:12.351Z,34.73
2022-09-05T14:13:49.181Z,34.76
2022-09-05T14:16:24.849Z,34.79
2022-09-05T14:19:10.985Z,34.78
2022-09-05T14:21:41.150Z,34.81
2022-09-05T14:24:27.571Z,34.86
2022-09-05T14:27:23.901Z,34.89
2022-09-05T14:30:09.339Z,34.93
2022-09-05T14:37:44.465Z,34.99
2022-09-05T14:37:48.158Z,35.02
2022-09-05T14:39:45.300Z,35.04
2022-09-05T14:42:57.491Z,35.04
2022-09-05T14:45:37.087Z,35.05
2022-09-05T14:48:33.668Z,35.04
2022-09-05T14:51:28.781Z,35.04
2022-09-05T14:54:10.562Z,35.06
2022-09-05T14:59:02.638Z,35.09
2022-09-05T15:02:54.383Z,35.13
2022-09-05T15:03:00.681Z,35.17
2022-09-05T15:05:29.285Z,35.22
2022-09-05T15:08:01.880Z,35.29
2022-09-05T15:12:18.265Z,35.34
2022-09-05T15:13:25.949Z,35.43
2022-09-05T15:16:02.619Z,35.51
2022-09-05T15:18:34.500Z,35.58
2022-09-05T15:21:33.614Z,35.64
2022-09-05T15:24:17.292Z,35.68
2022-09-05T15:26:48.409Z,35.71
2022-09-05T15:29:25.891Z,35.72
2022-09-05T15:32:10.119Z,35.72
2022-09-05T15:34:38.611Z,35.73
2022-09-05T15:37:41.156Z,35.75
2022-09-05T15:40:23.903Z,35.74
2022-09-05T15:43:02.531Z,35.72
2022-09-05T15:45:32.951Z,35.68
2022-09-05T15:48:14.855Z,35.63
2022-09-05T15:50:51.242Z,35.60
2022-09-05T15:53:34.361Z,35.56
2022-09-05T15:56:18.192Z,35.54
2022-09-05T15:58:53.049Z,35.49
2022-09-05T16:01:31.184Z,35.43
2022-09-05T16:10:26.657Z,35.36
2022-09-05T16:10:33.766Z,35.31
2022-09-05T16:10:35.760Z,35.27
2022-09-05T16:12:50.376Z,35.23
2022-09-05T16:18:42.647Z,35.20
2022-09-05T16:23:13.192Z,35.10
2022-09-05T16:23:17.546Z,35.16
2022-09-05T16:24:05.331Z,35.04
2022-09-05T16:26:47.026Z,34.97
2022-09-05T16:29:26.049Z,34.90
2022-09-05T16:32:11.699Z,34.84
2022-09-05T16:35:01.406Z,34.79
2022-09-05T16:37:29.882Z,34.74
2022-09-05T16:40:35.478Z,34.71
2022-09-05T16:43:22.713Z,34.67
2022-09-05T16:45:58.621Z,34.60
2022-09-05T16:48:36.953Z,34.53
2022-09-05T16:51:35.487Z,34.47
2022-09-05T16:54:14.509Z,34.43
2022-09-05T16:56:54.151Z,34.39
2022-09-05T16:59:32.489Z,34.34
2022-09-05T17:02:05.842Z,34.27
2022-09-05T17:04:42.571Z,34.18
2022-09-05T17:08:07.549Z,34.02
2022-09-05T17:10:45.040Z,33.88
2022-09-05T17:13:37.848Z,33.71
2022-09-05T17:16:06.317Z,33.54
2022-09-05T17:18:35.312Z,33.39
2022-09-05T17:21:09.982Z,33.22
2022-09-05T17:29:18.884Z,33.04
2022-09-05T17:29:36.535Z,32.87
2022-09-05T17:32:39.749Z,32.55
2022-09-05T17:35:17.298Z,32.40
2022-09-05T17:38:15.788Z,32.26
2022-09-05T17:40:42.695Z,32.13
2022-09-05T17:43:28.537Z,31.99
2022-09-05T17:46:26.049Z,31.85
2022-09-05T17:49:17.500Z,31.73
2022-09-05T17:51:51.434Z,31.61
2022-09-05T17:54:29.874Z,31.48
2022-09-05T17:56:56.465Z,31.36
2022-09-05T17:59:24.563Z,31.25
2022-09-05T18:02:03.575Z,31.16
2022-09-05T18:04:50.392Z,31.02
2022-09-05T18:07:19.536Z,30.93
2022-09-05T18:09:58.879Z,30.82
2022-09-05T18:13:13.935Z,30.72
2022-09-05T18:15:37.742Z,30.59
2022-09-05T18:18:22.100Z,30.50
2022-09-05T18:21:21.819Z,30.40
2022-09-05T18:23:58.278Z,30.29
2022-09-05T18:26:27.647Z,30.18
2022-09-05T18:29:21.258Z,30.07
2022-09-05T18:32:13.692Z,29.97
2022-09-05T18:34:42.990Z,29.86
2022-09-05T18:37:36.172Z,29.75
2022-09-05T18:40:08.890Z,29.68
2022-09-05T18:42:52.557Z,29.61
2022-09-05T18:45:28.190Z,29.53
2022-09-05T18:47:59.636Z,29.46
2022-09-05T18:50:33.926Z,29.42
2022-09-05T18:53:10.158Z,29.34
2022-09-05T18:56:13.087Z,29.28
2022-09-05T18:59:09.717Z,29.20
2022-09-05T19:02:01.162Z,29.12
2022-09-05T19:04:49.446Z,29.04
2022-09-05T19:07:26.980Z,28.96
2022-09-05T19:10:01.006Z,28.89
2022-09-05T19:12:47.858Z,28.82
2022-09-05T19:15:24.777Z,28.77
2022-09-05T19:18:26.769Z,28.74
2022-09-05T19:21:12.068Z,28.71
2022-09-05T19:23:50.012Z,28.69
2022-09-05T19:26:17.382Z,28.65
2022-09-05T19:36:45.455Z,28.64
2022-09-05T19:37:05.136Z,28.59
2022-09-05T19:37:08.025Z,28.61
2022-09-05T19:37:26.196Z,28.57
2022-09-05T19:46:44.274Z,28.54
2022-09-05T19:47:26.060Z,28.50
2022-09-05T19:47:45.141Z,28.50
2022-09-05T19:48:34.291Z,28.47
2022-09-05T19:51:17.599Z,28.45
2022-09-05T19:53:53.993Z,28.43
2022-09-05T19:56:44.217Z,28.40
2022-09-05T19:59:22.566Z,28.37
2022-09-05T20:01:51.790Z,28.33
2022-09-05T20:04:19.530Z,28.31
2022-09-05T20:06:48.116Z,28.30
2022-09-05T20:09:17.661Z,28.28
2022-09-05T20:11:49.747Z,28.25
2022-09-05T20:14:25.449Z,28.22
2022-09-05T20:16:56.059Z,28.19
2022-09-05T20:19:34.221Z,28.15
2022-09-05T20:22:21.166Z,28.13
2022-09-05T20:24:52.608Z,28.09
2022-09-05T20:27:19.686Z,28.07
2022-09-05T20:30:06.162Z,28.05
2022-09-05T20:32:40.521Z,28.02
2022-09-05T20:37:52.935Z,28.00
2022-09-05T20:43:22.462Z,27.98
2022-09-05T20:43:31.793Z,27.96
2022-09-05T20:44:01.440Z,27.92
2022-09-05T20:50:26.056Z,27.90
2022-09-05T20:54:22.764Z,27.87
2022-09-05T20:54:27.969Z,27.85
2022-09-05T20:55:38.374Z,27.82
2022-09-05T20:58:31.528Z,27.79
2022-09-05T21:01:20.611Z,27.77
2022-09-05T21:03:58.843Z,27.75
2022-09-05T21:06:26.805Z,27.72
2022-09-05T21:09:06.898Z,27.71
2022-09-05T21:11:34.009Z,27.69
2022-09-05T21:14:04.758Z,27.68
2022-09-05T21:16:37.175Z,27.68
2022-09-05T21:19:04.294Z,27.62
2022-09-05T21:21:33.688Z,27.60
2022-09-05T21:24:15.811Z,27.57
2022-09-05T21:26:43.633Z,27.51
2022-09-05T21:29:13.151Z,27.48
2022-09-05T21:31:45.774Z,27.44
2022-09-05T21:34:48.527Z,27.39
2022-09-05T21:37:17.403Z,27.33
2022-09-05T21:39:58.376Z,27.28
2022-09-05T21:43:51.438Z,27.21
2022-09-05T21:47:34.567Z,27.15
2022-09-05T21:48:03.726Z,27.09
2022-09-05T21:50:46.742Z,27.04
2022-09-05T21:56:54.588Z,26.99
2022-09-05T21:59:24.926Z,26.87
2022-09-05T21:59:25.237Z,26.93
2022-09-05T22:01:54.721Z,26.82
2022-09-05T22:04:22.081Z,26.77
2022-09-05T22:06:49.374Z,26.71
2022-09-05T22:09:20.938Z,26.68
2022-09-05T22:11:50.608Z,26.62
2022-09-05T22:14:19.503Z,26.59
2022-09-05T22:16:48.413Z,26.56
2022-09-05T22:19:22.887Z,26.54
2022-09-05T22:21:55.851Z,26.52
2022-09-05T22:24:24.932Z,26.49
2022-09-05T22:27:12.547Z,26.49
2022-09-05T22:29:43.182Z,26.48
2022-09-05T22:32:14.221Z,26.47
2022-09-05T22:34:40.758Z,26.45
2022-09-05T22:37:07.628Z,26.43
2022-09-05T22:39:36.841Z,26.43
2022-09-05T22:42:10.801Z,26.41
2022-09-05T22:44:41.140Z,26.42
2022-09-05T22:47:11.078Z,26.40
2022-09-05T22:49:37.929Z,26.38
2022-09-05T22:52:06.175Z,26.38
2022-09-05T22:54:33.120Z,26.37
2022-09-05T22:56:59.691Z,26.36
2022-09-05T22:59:26.207Z,26.37
2022-09-05T23:01:52.730Z,26.35
2022-09-05T23:04:19.462Z,26.35
2022-09-05T23:06:46.113Z,26.35
2022-09-05T23:09:12.606Z,26.35
2022-09-05T23:11:39.184Z,26.35
2022-09-05T23:14:05.655Z,26.34
2022-09-05T23:16:32.258Z,26.33
2022-09-05T23:18:58.736Z,26.32
2022-09-05T23:21:25.226Z,26.30
2022-09-05T23:23:51.777Z,26.28
2022-09-05T23:26:18.321Z,26.28
2022-09-05T23:28:44.758Z,26.26
2022-09-05T23:31:12.438Z,26.25
2022-09-05T23:33:41.830Z,26.24
2022-09-05T23:36:10.594Z,26.23
2022-09-05T23:38:37.130Z,26.21
2022-09-05T23:41:12.266Z,26.22
2022-09-05T23:43:38.803Z,26.19
2022-09-05T23:46:05.628Z,26.19
2022-09-05T23:48:32.402Z,26.17
2022-09-05T23:51:08.668Z,26.16
2022-09-05T23:53:35.804Z,26.13
2022-09-05T23:56:04.077Z,26.11
2022-09-05T23:58:31.245Z,26.10
